Time;durP1;ratioP1;P1;durP2;ratioP2;P2;SDS_P1;SDS_P2;PMS_P1;PMS_P2;Temp;Humidity;BMP_temperature;BMP_pressure;BME280_temperature;BME280_humidity;BME280_pressure;Samples;Min_cycle;Max_cycle;Signal;HPM_P1;HPM_P2
2023/09/17 00:00:41;;;;;;;18.38;11.75;;;;;;;;;;2090375;28;20472;-73
2023/09/17 00:02:02;;;;;;;15.55;11.05;;;;;;;;;;2094344;28;20451;-75
2023/09/17 00:03:23;;;;;;;16.42;10.18;;;;;;;;;;2090090;28;20357;-73
2023/09/17 00:04:44;;;;;;;14.82;10.10;;;;;;;;;;2087565;28;20036;-74
2023/09/17 00:06:05;;;;;;;16.00;9.95;;;;;;;;;;2101855;28;20028;-73
2023/09/17 00:07:26;;;;;;;15.75;10.32;;;;;;;;;;2099544;28;20024;-74
2023/09/17 00:08:47;;;;;;;18.05;11.38;;;;;;;;;;2088386;28;20025;-75
2023/09/17 00:10:08;;;;;;;17.63;11.43;;;;;;;;;;2090355;28;20036;-75
2023/09/17 00:11:29;;;;;;;15.43;11.23;;;;;;;;;;2093999;28;20025;-75
2023/09/17 00:12:53;;;;;;;17.20;12.02;;;;;;;;;;2096067;28;20086;-75
2023/09/17 00:14:14;;;;;;;23.33;11.82;;;;;;;;;;2085806;28;20045;-76
2023/09/17 00:15:35;;;;;;;17.13;11.77;;;;;;;;;;2092193;28;20537;-76
2023/09/17 00:16:56;;;;;;;14.80;11.35;;;;;;;;;;2095975;28;20113;-75
2023/09/17 00:18:17;;;;;;;17.17;11.32;;;;;;;;;;2095742;28;20029;-76
2023/09/17 00:19:37;;;;;;;16.00;11.00;;;;;;;;;;2096070;28;20055;-75
2023/09/17 00:20:58;;;;;;;14.80;10.85;;;;;;;;;;2093282;28;20025;-76
2023/09/17 00:22:19;;;;;;;15.48;11.00;;;;;;;;;;2093957;28;20036;-76
2023/09/17 00:23:40;;;;;;;17.45;11.80;;;;;;;;;;2098748;28;20035;-75
2023/09/17 00:25:01;;;;;;;17.02;11.32;;;;;;;;;;2101767;28;20024;-74
2023/09/17 00:26:22;;;;;;;17.67;11.30;;;;;;;;;;2096422;28;20476;-74
2023/09/17 00:27:43;;;;;;;17.45;11.75;;;;;;;;;;2093629;28;20095;-74
2023/09/17 00:29:04;;;;;;;17.98;12.15;;;;;;;;;;2088112;28;20040;-73
2023/09/17 00:30:25;;;;;;;18.85;11.70;;;;;;;;;;2089468;28;20380;-74
2023/09/17 00:31:46;;;;;;;17.90;12.10;;;;;;;;;;2096865;28;20032;-75
2023/09/17 00:33:07;;;;;;;17.80;11.55;;;;;;;;;;2083505;28;20135;-75
2023/09/17 00:34:27;;;;;;;15.93;11.13;;;;;;;;;;2082465;28;20033;-74
2023/09/17 00:35:48;;;;;;;19.38;12.68;;;;;;;;;;2084713;28;20548;-75
2023/09/17 00:37:10;;;;;;;17.92;11.57;;;;;;;;;;2092529;28;20515;-75
2023/09/17 00:38:31;;;;;;;15.98;11.13;;;;;;;;;;2087904;28;20664;-75
2023/09/17 00:39:53;;;;;;;19.70;11.60;;;;;;;;;;2088589;28;20512;-74
2023/09/17 00:41:14;;;;;;;17.17;10.75;;;;;;;;;;2096686;28;20028;-74
2023/09/17 00:42:35;;;;;;;17.50;11.20;;;;;;;;;;2102092;28;20082;-75
2023/09/17 00:43:56;;;;;;;17.50;11.05;;;;;;;;;;2082524;28;20090;-75
2023/09/17 00:45:17;;;;;;;17.00;11.35;;;;;;;;;;2091495;28;20032;-75
2023/09/17 00:46:38;;;;;;;18.38;11.50;;;;;;;;;;2089707;28;20151;-74
2023/09/17 00:48:00;;;;;;;17.95;11.20;;;;;;;;;;2092178;28;20040;-75
2023/09/17 00:49:22;;;;;;;16.25;12.10;;;;;;;;;;2085890;28;20559;-74
2023/09/17 00:50:43;;;;;;;15.93;11.02;;;;;;;;;;2096886;28;20035;-74
2023/09/17 00:52:11;;;;;;;17.23;10.43;;;;;;;;;;2095348;28;20024;-74
2023/09/17 00:53:32;;;;;;;16.83;10.98;;;;;;;;;;2084913;28;20025;-75
2023/09/17 00:54:53;;;;;;;15.70;10.50;;;;;;;;;;2088125;28;20033;-74
2023/09/17 00:56:14;;;;;;;18.25;11.13;;;;;;;;;;2092214;28;20025;-73
2023/09/17 00:57:37;;;;;;;14.82;10.50;;;;;;;;;;2085844;28;20040;-74
2023/09/17 00:58:59;;;;;;;14.80;10.65;;;;;;;;;;2084405;28;20071;-75
2023/09/17 01:00:21;;;;;;;16.45;10.25;;;;;;;;;;2092452;28;20446;-74
2023/09/17 01:01:42;;;;;;;18.95;10.75;;;;;;;;;;2106566;28;20025;-74
2023/09/17 01:03:03;;;;;;;18.40;10.77;;;;;;;;;;2090617;28;20381;-74
2023/09/17 01:04:26;;;;;;;16.98;10.98;;;;;;;;;;2088062;28;20453;-74
2023/09/17 01:05:47;;;;;;;13.45;10.73;;;;;;;;;;2095052;28;20525;-74
2023/09/17 01:07:09;;;;;;;15.20;9.52;;;;;;;;;;2088628;28;20086;-74
2023/09/17 01:08:30;;;;;;;17.13;10.93;;;;;;;;;;2091488;28;20119;-74
2023/09/17 01:09:52;;;;;;;15.35;11.13;;;;;;;;;;2087919;28;20040;-74
2023/09/17 01:11:13;;;;;;;16.10;10.68;;;;;;;;;;2097577;28;20039;-74
2023/09/17 01:12:34;;;;;;;14.80;10.20;;;;;;;;;;2092330;28;20024;-74
2023/09/17 01:14:15;;;;;;;14.77;11.05;;;;;;;;;;2093074;28;20028;-74
2023/09/17 01:15:35;;;;;;;16.45;10.50;;;;;;;;;;2096527;28;20044;-75
2023/09/17 01:16:57;;;;;;;17.15;10.38;;;;;;;;;;2097627;28;20098;-75
2023/09/17 01:18:22;;;;;;;19.67;11.43;;;;;;;;;;2088976;28;20025;-75
2023/09/17 01:19:42;;;;;;;16.20;12.05;;;;;;;;;;2090869;28;20031;-75
2023/09/17 01:21:07;;;;;;;17.70;11.30;;;;;;;;;;2102673;28;20028;-75
2023/09/17 01:22:35;;;;;;;15.68;10.23;;;;;;;;;;2102377;28;20109;-75
2023/09/17 01:24:18;;;;;;;21.55;11.70;;;;;;;;;;2096978;28;20034;-75
2023/09/17 01:25:52;;;;;;;16.90;11.18;;;;;;;;;;2093440;28;20043;-74
2023/09/17 01:27:14;;;;;;;17.17;11.70;;;;;;;;;;2094208;28;20094;-75
2023/09/17 01:28:35;;;;;;;21.35;12.48;;;;;;;;;;2086538;28;20037;-74
2023/09/17 01:29:56;;;;;;;16.17;11.93;;;;;;;;;;2092670;28;20082;-74
2023/09/17 01:31:17;;;;;;;17.45;11.65;;;;;;;;;;2093132;28;20128;-75
2023/09/17 01:32:39;;;;;;;21.30;12.23;;;;;;;;;;2099666;28;20024;-73
2023/09/17 01:34:00;;;;;;;19.98;12.70;;;;;;;;;;2084898;28;20040;-73
2023/09/17 01:35:21;;;;;;;22.05;13.07;;;;;;;;;;2076434;28;21081;-74
2023/09/17 01:36:43;;;;;;;24.30;12.30;;;;;;;;;;2086263;28;20036;-74
2023/09/17 01:38:06;;;;;;;16.85;12.13;;;;;;;;;;2079544;28;20034;-73
2023/09/17 01:39:30;;;;;;;20.05;12.88;;;;;;;;;;2084572;28;20094;-73
2023/09/17 01:40:51;;;;;;;19.52;12.25;;;;;;;;;;2089021;28;20365;-73
2023/09/17 01:42:13;;;;;;;21.42;12.55;;;;;;;;;;2078101;28;20033;-74
2023/09/17 01:43:37;;;;;;;28.15;14.82;;;;;;;;;;2082097;28;20056;-73
2023/09/17 01:45:00;;;;;;;19.60;13.48;;;;;;;;;;2077889;28;20049;-74
2023/09/17 01:46:22;;;;;;;21.17;13.68;;;;;;;;;;2083774;28;20033;-74
2023/09/17 01:47:44;;;;;;;20.95;14.30;;;;;;;;;;2083751;28;20159;-73
2023/09/17 01:49:06;;;;;;;21.77;14.50;;;;;;;;;;2076628;28;20500;-73
2023/09/17 01:50:28;;;;;;;27.05;14.63;;;;;;;;;;2082272;28;20045;-73
2023/09/17 01:51:49;;;;;;;25.30;15.38;;;;;;;;;;2080554;28;20030;-73
2023/09/17 01:53:13;;;;;;;22.42;14.20;;;;;;;;;;2095508;28;20039;-74
2023/09/17 01:54:34;;;;;;;22.77;14.63;;;;;;;;;;2087673;28;20033;-73
2023/09/17 01:55:56;;;;;;;22.02;14.07;;;;;;;;;;2096671;28;20353;-73
2023/09/17 01:57:16;;;;;;;;;;;;;;;;;;2090597;28;20040;-74
2023/09/17 01:58:37;;;;;;;26.83;15.13;;;;;;;;;;2092027;28;19905;-73
2023/09/17 01:59:58;;;;;;;22.75;14.57;;;;;;;;;;2089593;28;20493;-74
2023/09/17 02:01:19;;;;;;;25.15;13.85;;;;;;;;;;2097989;28;20028;-73
2023/09/17 02:02:46;;;;;;;23.17;15.20;;;;;;;;;;2091300;28;20029;-73
2023/09/17 02:04:07;;;;;;;24.40;15.35;;;;;;;;;;2089498;28;20021;-73
2023/09/17 02:05:28;;;;;;;23.67;15.25;;;;;;;;;;2089565;28;20103;-73
2023/09/17 02:06:53;;;;;;;22.17;15.05;;;;;;;;;;2089576;28;20025;-74
2023/09/17 02:08:14;;;;;;;22.35;14.82;;;;;;;;;;2094755;28;20032;-73
2023/09/17 02:09:35;;;;;;;21.52;15.13;;;;;;;;;;2085971;28;20036;-73
2023/09/17 02:10:56;;;;;;;24.60;15.02;;;;;;;;;;2084918;28;20526;-73
2023/09/17 02:12:17;;;;;;;22.83;14.68;;;;;;;;;;2085041;28;20357;-73
2023/09/17 02:13:38;;;;;;;21.80;15.95;;;;;;;;;;2081141;28;20025;-73
2023/09/17 02:14:59;;;;;;;22.30;15.30;;;;;;;;;;2088616;28;20115;-74
2023/09/17 02:16:20;;;;;;;21.98;15.60;;;;;;;;;;2087118;28;20021;-73
2023/09/17 02:17:42;;;;;;;21.80;15.03;;;;;;;;;;2089329;28;20048;-74
2023/09/17 02:19:03;;;;;;;25.67;16.67;;;;;;;;;;2078136;28;20439;-73
2023/09/17 02:20:24;;;;;;;25.63;15.55;;;;;;;;;;2083911;28;20079;-73
2023/09/17 02:21:45;;;;;;;25.83;15.68;;;;;;;;;;2078109;28;20131;-73
2023/09/17 02:23:06;;;;;;;23.58;14.65;;;;;;;;;;2085970;28;20029;-73
2023/09/17 02:24:27;;;;;;;27.13;17.30;;;;;;;;;;2085629;28;20049;-73
2023/09/17 02:25:49;;;;;;;26.17;16.20;;;;;;;;;;2078911;28;20029;-73
2023/09/17 02:27:09;;;;;;;25.77;16.23;;;;;;;;;;2079154;28;20084;-73
2023/09/17 02:28:30;;;;;;;27.33;16.77;;;;;;;;;;2084606;28;20036;-74
2023/09/17 02:29:51;;;;;;;29.45;16.45;;;;;;;;;;2078486;28;20528;-74
2023/09/17 02:31:13;;;;;;;24.58;15.80;;;;;;;;;;2084368;28;20036;-74
2023/09/17 02:32:34;;;;;;;22.90;14.70;;;;;;;;;;2086949;28;20322;-74
2023/09/17 02:33:55;;;;;;;28.20;15.25;;;;;;;;;;2088664;28;20033;-74
2023/09/17 02:35:16;;;;;;;23.70;14.40;;;;;;;;;;2079969;28;20386;-74
2023/09/17 02:36:38;;;;;;;22.10;14.35;;;;;;;;;;2084058;28;20033;-74
2023/09/17 02:37:58;;;;;;;25.08;15.70;;;;;;;;;;2078413;28;20049;-74
2023/09/17 02:39:20;;;;;;;25.63;16.00;;;;;;;;;;2084838;28;20040;-74
2023/09/17 02:40:41;;;;;;;21.50;15.73;;;;;;;;;;2078716;28;20048;-73
2023/09/17 02:42:02;;;;;;;25.27;15.38;;;;;;;;;;2071019;28;20030;-73
2023/09/17 02:43:23;;;;;;;22.23;15.20;;;;;;;;;;2083475;28;20032;-73
2023/09/17 02:44:43;;;;;;;25.33;15.10;;;;;;;;;;2084925;28;20045;-73
2023/09/17 02:46:05;;;;;;;23.05;15.40;;;;;;;;;;2086990;28;20416;-73
2023/09/17 02:47:25;;;;;;;23.02;15.10;;;;;;;;;;2084849;28;20098;-73
2023/09/17 02:48:47;;;;;;;20.52;14.77;;;;;;;;;;2089931;28;20098;-73
2023/09/17 02:50:09;;;;;;;23.92;15.45;;;;;;;;;;2077576;28;20602;-73
2023/09/17 02:51:30;;;;;;;22.80;16.48;;;;;;;;;;2081874;28;20033;-73
2023/09/17 02:52:51;;;;;;;23.08;15.70;;;;;;;;;;2082713;28;20435;-73
2023/09/17 02:54:12;;;;;;;26.83;17.23;;;;;;;;;;2081834;28;20480;-73
2023/09/17 02:55:36;;;;;;;26.58;16.25;;;;;;;;;;2081125;28;20207;-73
2023/09/17 02:56:58;;;;;;;22.92;15.02;;;;;;;;;;2083967;28;20488;-73
2023/09/17 02:58:19;;;;;;;;;;;;;;;;;;2074786;28;20038;-73
2023/09/17 02:59:40;;;;;;;23.85;15.65;;;;;;;;;;2077801;28;19909;-73
2023/09/17 03:01:04;;;;;;;28.35;15.52;;;;;;;;;;2088705;28;20031;-74
2023/09/17 03:02:25;;;;;;;25.88;15.10;;;;;;;;;;2092040;28;20025;-73
2023/09/17 03:03:46;;;;;;;22.45;16.17;;;;;;;;;;2081326;28;20346;-73
2023/09/17 03:05:10;;;;;;;22.15;15.70;;;;;;;;;;2079070;28;20378;-73
2023/09/17 03:06:30;;;;;;;26.70;15.55;;;;;;;;;;2094862;28;20036;-73
2023/09/17 03:07:53;;;;;;;24.90;14.88;;;;;;;;;;2072479;28;20468;-73
2023/09/17 03:09:14;;;;;;;29.02;15.70;;;;;;;;;;2074463;28;20036;-73
2023/09/17 03:10:41;;;;;;;25.55;15.90;;;;;;;;;;2076126;28;20046;-73
2023/09/17 03:12:02;;;;;;;24.38;15.77;;;;;;;;;;2084556;28;20496;-73
2023/09/17 03:13:23;;;;;;;23.52;14.90;;;;;;;;;;2089446;28;20988;-73
2023/09/17 03:14:44;;;;;;;24.55;16.55;;;;;;;;;;2073466;28;20050;-73
2023/09/17 03:16:05;;;;;;;23.75;16.50;;;;;;;;;;2089788;28;20036;-73
2023/09/17 03:17:26;;;;;;;26.52;16.55;;;;;;;;;;2097542;28;20492;-73
2023/09/17 03:18:47;;;;;;;23.27;15.32;;;;;;;;;;2095992;28;20410;-72
2023/09/17 03:20:16;;;;;;;26.38;17.10;;;;;;;;;;2081115;28;20032;-73
2023/09/17 03:21:40;;;;;;;24.50;15.40;;;;;;;;;;2088168;28;20029;-73
2023/09/17 03:23:02;;;;;;;25.25;14.85;;;;;;;;;;2080606;28;20124;-73
2023/09/17 03:24:23;;;;;;;29.88;17.85;;;;;;;;;;2082874;28;20043;-73
2023/09/17 03:25:44;;;;;;;26.80;16.73;;;;;;;;;;2091773;28;20020;-73
2023/09/17 03:27:05;;;;;;;28.65;16.35;;;;;;;;;;2086960;28;20582;-73
2023/09/17 03:28:27;;;;;;;22.15;16.20;;;;;;;;;;2092348;28;20025;-74
2023/09/17 03:29:47;;;;;;;28.20;16.98;;;;;;;;;;2083865;28;20033;-74
2023/09/17 03:31:08;;;;;;;26.98;16.98;;;;;;;;;;2083450;28;20533;-73
2023/09/17 03:32:29;;;;;;;28.38;17.08;;;;;;;;;;2087576;28;20108;-73
2023/09/17 03:33:50;;;;;;;25.63;16.77;;;;;;;;;;2083682;28;20260;-74
2023/09/17 03:35:11;;;;;;;23.90;15.80;;;;;;;;;;2092171;28;20053;-74
2023/09/17 03:36:35;;;;;;;27.33;16.63;;;;;;;;;;2093726;28;20425;-74
2023/09/17 03:37:56;;;;;;;31.25;17.92;;;;;;;;;;2094934;28;20024;-74
2023/09/17 03:39:17;;;;;;;26.33;17.98;;;;;;;;;;2086977;28;20067;-74
2023/09/17 03:40:38;;;;;;;24.85;16.70;;;;;;;;;;2089706;28;20025;-74
2023/09/17 03:41:59;;;;;;;27.42;17.58;;;;;;;;;;2085197;28;20032;-74
2023/09/17 03:43:20;;;;;;;32.72;18.98;;;;;;;;;;2092304;28;20036;-74
2023/09/17 03:44:41;;;;;;;30.25;18.00;;;;;;;;;;2095670;28;20113;-74
2023/09/17 03:46:04;;;;;;;25.48;17.33;;;;;;;;;;2092751;28;20499;-74
2023/09/17 03:47:24;;;;;;;33.40;18.08;;;;;;;;;;2086248;28;20041;-74
2023/09/17 03:48:46;;;;;;;32.28;18.52;;;;;;;;;;2087701;28;20496;-74
2023/09/17 03:50:11;;;;;;;31.60;19.53;;;;;;;;;;2091959;28;20040;-74
2023/09/17 03:51:32;;;;;;;26.67;18.02;;;;;;;;;;2095012;28;20032;-74
2023/09/17 03:52:54;;;;;;;27.10;18.20;;;;;;;;;;2096701;28;20033;-74
2023/09/17 03:54:15;;;;;;;30.83;19.58;;;;;;;;;;2093054;28;20453;-74
2023/09/17 03:55:36;;;;;;;32.17;19.88;;;;;;;;;;2088220;28;20049;-74
2023/09/17 03:56:57;;;;;;;28.98;19.00;;;;;;;;;;2092642;28;20401;-74
2023/09/17 03:58:18;;;;;;;32.08;19.25;;;;;;;;;;2096620;28;20043;-74
2023/09/17 03:59:38;;;;;;;30.27;19.67;;;;;;;;;;2085399;28;20083;-74
2023/09/17 04:00:59;;;;;;;30.45;19.48;;;;;;;;;;2084018;28;20493;-74
2023/09/17 04:02:20;;;;;;;34.53;19.92;;;;;;;;;;2085967;28;20028;-74
2023/09/17 04:03:41;;;;;;;32.80;20.13;;;;;;;;;;2081759;28;20033;-74
2023/09/17 04:05:10;;;;;;;32.92;20.65;;;;;;;;;;2082540;28;20041;-74
2023/09/17 04:06:31;;;;;;;34.22;22.33;;;;;;;;;;2092493;28;20040;-74
2023/09/17 04:07:52;;;;;;;30.83;20.63;;;;;;;;;;2096372;28;20090;-74
2023/09/17 04:09:13;;;;;;;30.25;20.40;;;;;;;;;;2095387;28;20037;-74
2023/09/17 04:10:34;;;;;;;35.70;21.40;;;;;;;;;;2086583;28;20041;-74
2023/09/17 04:11:55;;;;;;;33.05;21.55;;;;;;;;;;2092921;28;20487;-73
2023/09/17 04:13:16;;;;;;;39.35;22.10;;;;;;;;;;2087052;28;20500;-73
2023/09/17 04:14:37;;;;;;;32.13;21.20;;;;;;;;;;2082339;28;20378;-74
2023/09/17 04:15:58;;;;;;;33.42;22.75;;;;;;;;;;2086246;28;20029;-74
2023/09/17 04:17:19;;;;;;;33.25;21.80;;;;;;;;;;2083016;28;20129;-73
2023/09/17 04:18:40;;;;;;;36.33;21.40;;;;;;;;;;2085376;28;20622;-73
2023/09/17 04:20:03;;;;;;;36.58;22.05;;;;;;;;;;2080039;28;20045;-73
2023/09/17 04:21:24;;;;;;;31.38;20.83;;;;;;;;;;2087663;28;20035;-74
2023/09/17 04:22:49;;;;;;;34.10;22.30;;;;;;;;;;2083268;28;20554;-73
2023/09/17 04:24:12;;;;;;;35.38;22.25;;;;;;;;;;2087551;28;20033;-73
2023/09/17 04:25:34;;;;;;;34.38;21.38;;;;;;;;;;2089456;28;20032;-75
2023/09/17 04:26:56;;;;;;;35.17;19.73;;;;;;;;;;2087289;28;20422;-74
2023/09/17 04:28:19;;;;;;;32.67;20.50;;;;;;;;;;2092625;28;20046;-73
2023/09/17 04:29:40;;;;;;;37.72;22.00;;;;;;;;;;2086873;28;20033;-73
2023/09/17 04:31:00;;;;;;;34.65;20.90;;;;;;;;;;2092583;28;20082;-74
2023/09/17 04:32:22;;;;;;;35.60;22.75;;;;;;;;;;2086756;28;20064;-76
2023/09/17 04:33:43;;;;;;;37.50;24.75;;;;;;;;;;2084447;28;20492;-74
2023/09/17 04:35:07;;;;;;;37.28;22.45;;;;;;;;;;2085084;28;20091;-73
2023/09/17 04:36:28;;;;;;;36.70;24.17;;;;;;;;;;2086218;28;20492;-73
2023/09/17 04:37:49;;;;;;;37.58;23.42;;;;;;;;;;2083655;28;20045;-73
2023/09/17 04:39:12;;;;;;;40.45;23.90;;;;;;;;;;2084811;28;20029;-73
2023/09/17 04:40:33;;;;;;;38.58;23.08;;;;;;;;;;2091258;28;20024;-74
2023/09/17 04:41:54;;;;;;;37.05;23.38;;;;;;;;;;2085153;28;20059;-73
2023/09/17 04:43:16;;;;;;;36.92;23.98;;;;;;;;;;2080605;28;20076;-73
2023/09/17 04:44:37;;;;;;;37.00;22.67;;;;;;;;;;2089050;28;20025;-74
2023/09/17 04:45:59;;;;;;;38.80;23.17;;;;;;;;;;2093189;28;20040;-73
2023/09/17 04:47:20;;;;;;;36.95;23.60;;;;;;;;;;2095330;28;20032;-73
2023/09/17 04:48:41;;;;;;;40.22;23.10;;;;;;;;;;2093770;28;20452;-74
2023/09/17 04:50:08;;;;;;;39.63;23.63;;;;;;;;;;2096050;28;20040;-74
2023/09/17 04:51:29;;;;;;;35.53;22.92;;;;;;;;;;2085341;28;20036;-74
2023/09/17 04:52:49;;;;;;;39.65;23.20;;;;;;;;;;2092073;28;20507;-74
2023/09/17 04:54:10;;;;;;;39.47;22.10;;;;;;;;;;2094344;28;20033;-74
2023/09/17 04:55:32;;;;;;;40.28;24.13;;;;;;;;;;2094373;28;20190;-74
2023/09/17 04:56:53;;;;;;;37.85;22.67;;;;;;;;;;2094605;28;20024;-73
2023/09/17 04:58:16;;;;;;;39.00;22.65;;;;;;;;;;2096443;28;20029;-74
2023/09/17 04:59:36;;;;;;;39.80;23.73;;;;;;;;;;2091779;28;21392;-73
2023/09/17 05:00:57;;;;;;;36.00;21.45;;;;;;;;;;2087420;28;20037;-74
2023/09/17 05:02:18;;;;;;;36.55;22.70;;;;;;;;;;2099989;28;20024;-74
2023/09/17 05:03:40;;;;;;;38.83;22.98;;;;;;;;;;2096029;28;20096;-73
2023/09/17 05:05:01;;;;;;;42.22;23.02;;;;;;;;;;2101588;28;20035;-73
2023/09/17 05:06:21;;;;;;;37.63;22.70;;;;;;;;;;2100017;28;20827;-75
2023/09/17 05:07:42;;;;;;;42.17;24.10;;;;;;;;;;2096905;28;20032;-75
2023/09/17 05:09:03;;;;;;;38.60;23.13;;;;;;;;;;2095934;28;20059;-74
2023/09/17 05:10:24;;;;;;;37.50;22.77;;;;;;;;;;2096351;28;20032;-75
2023/09/17 05:11:45;;;;;;;45.75;23.63;;;;;;;;;;2098371;28;20017;-75
2023/09/17 05:13:06;;;;;;;38.45;23.80;;;;;;;;;;2091559;28;20025;-74
2023/09/17 05:14:28;;;;;;;37.15;21.42;;;;;;;;;;2093750;28;20032;-75
2023/09/17 05:15:49;;;;;;;36.95;22.67;;;;;;;;;;2087323;28;20071;-75
2023/09/17 05:17:10;;;;;;;39.92;23.70;;;;;;;;;;2083686;28;20028;-74
2023/09/17 05:18:31;;;;;;;41.72;23.38;;;;;;;;;;2077865;28;20033;-75
2023/09/17 05:19:52;;;;;;;39.83;23.55;;;;;;;;;;2086082;28;20036;-75
2023/09/17 05:21:13;;;;;;;38.72;23.77;;;;;;;;;;2084365;28;20123;-73
2023/09/17 05:22:34;;;;;;;42.35;23.60;;;;;;;;;;2092070;28;20036;-74
2023/09/17 05:23:55;;;;;;;40.25;22.90;;;;;;;;;;2086328;28;20033;-75
2023/09/17 05:25:16;;;;;;;38.90;23.20;;;;;;;;;;2090060;28;20117;-74
2023/09/17 05:26:37;;;;;;;36.83;22.20;;;;;;;;;;2093230;28;20440;-74
2023/09/17 05:27:58;;;;;;;44.00;23.40;;;;;;;;;;2083829;28;20122;-74
2023/09/17 05:29:19;;;;;;;42.28;23.48;;;;;;;;;;2084439;28;20071;-74
2023/09/17 05:30:40;;;;;;;37.17;22.45;;;;;;;;;;2082335;28;20132;-74
2023/09/17 05:32:00;;;;;;;39.80;23.10;;;;;;;;;;2085054;28;20028;-75
2023/09/17 05:33:22;;;;;;;37.08;22.60;;;;;;;;;;2090407;28;20059;-74
2023/09/17 05:34:44;;;;;;;40.30;22.92;;;;;;;;;;2090684;28;20105;-74
2023/09/17 05:36:05;;;;;;;36.45;22.90;;;;;;;;;;2089901;28;20032;-74
2023/09/17 05:37:26;;;;;;;33.97;22.08;;;;;;;;;;2086055;28;20037;-75
2023/09/17 05:38:47;;;;;;;36.88;22.45;;;;;;;;;;2085060;28;20075;-75
2023/09/17 05:40:08;;;;;;;34.88;22.83;;;;;;;;;;2078896;28;20029;-75
2023/09/17 05:41:29;;;;;;;42.58;22.92;;;;;;;;;;2081676;28;20025;-77
2023/09/17 05:42:51;;;;;;;37.55;23.17;;;;;;;;;;2084049;28;20029;-76
2023/09/17 05:44:11;;;;;;;38.08;23.02;;;;;;;;;;2082451;28;20037;-76
2023/09/17 05:45:32;;;;;;;37.10;22.17;;;;;;;;;;2089355;28;20040;-74
2023/09/17 05:46:53;;;;;;;36.13;21.52;;;;;;;;;;2085612;28;20436;-74
2023/09/17 05:48:14;;;;;;;38.35;23.23;;;;;;;;;;2087489;28;20095;-74
2023/09/17 05:49:35;;;;;;;42.20;23.58;;;;;;;;;;2091193;28;20041;-74
2023/09/17 05:50:56;;;;;;;43.08;25.05;;;;;;;;;;2084043;28;20029;-74
2023/09/17 05:52:18;;;;;;;40.47;23.13;;;;;;;;;;2091868;28;20041;-75
2023/09/17 05:53:39;;;;;;;37.95;21.35;;;;;;;;;;2085846;28;20789;-74
2023/09/17 05:55:00;;;;;;;40.55;25.63;;;;;;;;;;2091071;28;20043;-75
2023/09/17 05:56:21;;;;;;;42.05;23.30;;;;;;;;;;2085239;28;20029;-75
2023/09/17 05:57:42;;;;;;;39.78;21.25;;;;;;;;;;2084128;28;20056;-75
2023/09/17 05:59:03;;;;;;;43.30;22.80;;;;;;;;;;2089609;28;20033;-75
2023/09/17 06:00:24;;;;;;;41.17;23.83;;;;;;;;;;2096723;28;20035;-75
2023/09/17 06:01:45;;;;;;;44.42;23.13;;;;;;;;;;2093855;28;20492;-75
2023/09/17 06:03:06;;;;;;;39.10;22.88;;;;;;;;;;2098632;28;20039;-75
2023/09/17 06:04:27;;;;;;;43.20;24.70;;;;;;;;;;2092443;28;20333;-74
2023/09/17 06:05:49;;;;;;;52.80;25.85;;;;;;;;;;2088739;28;20033;-74
2023/09/17 06:07:10;;;;;;;41.20;23.38;;;;;;;;;;2085216;28;20083;-75
2023/09/17 06:08:31;;;;;;;42.85;24.85;;;;;;;;;;2091917;28;20029;-75
2023/09/17 06:09:52;;;;;;;44.50;25.50;;;;;;;;;;2083214;28;20033;-76
2023/09/17 06:11:13;;;;;;;42.53;24.17;;;;;;;;;;2085019;28;20504;-75
2023/09/17 06:12:34;;;;;;;43.13;24.27;;;;;;;;;;2081549;28;20037;-74
2023/09/17 06:13:55;;;;;;;43.75;25.73;;;;;;;;;;2083388;28;20401;-74
2023/09/17 06:15:16;;;;;;;38.88;24.17;;;;;;;;;;2091198;28;20044;-74
2023/09/17 06:16:37;;;;;;;40.47;23.10;;;;;;;;;;2092373;28;20043;-73
2023/09/17 06:17:57;;;;;;;45.40;24.77;;;;;;;;;;2086750;28;20025;-74
2023/09/17 06:19:18;;;;;;;41.65;23.27;;;;;;;;;;2092694;28;20274;-74
2023/09/17 06:20:39;;;;;;;43.13;23.73;;;;;;;;;;2086641;28;20029;-74
2023/09/17 06:22:00;;;;;;;41.25;24.48;;;;;;;;;;2089906;28;20426;-74
2023/09/17 06:23:21;;;;;;;46.20;24.38;;;;;;;;;;2087088;28;20049;-74
2023/09/17 06:24:42;;;;;;;45.47;24.85;;;;;;;;;;2088399;28;20029;-74
2023/09/17 06:26:03;;;;;;;45.20;24.85;;;;;;;;;;2089113;28;20052;-74
2023/09/17 06:27:25;;;;;;;42.40;24.25;;;;;;;;;;2086411;28;20029;-74
2023/09/17 06:28:46;;;;;;;40.33;23.83;;;;;;;;;;2094508;28;20420;-74
2023/09/17 06:30:07;;;;;;;42.83;24.52;;;;;;;;;;2095725;28;20037;-74
2023/09/17 06:31:28;;;;;;;42.85;23.55;;;;;;;;;;2087352;28;20022;-73
2023/09/17 06:32:49;;;;;;;40.25;24.98;;;;;;;;;;2091034;28;20033;-74
2023/09/17 06:34:10;;;;;;;43.03;23.63;;;;;;;;;;2094695;28;20032;-73
2023/09/17 06:35:31;;;;;;;46.80;25.33;;;;;;;;;;2091021;28;20036;-74
2023/09/17 06:36:51;;;;;;;42.60;23.38;;;;;;;;;;2086938;28;20081;-74
2023/09/17 06:38:12;;;;;;;37.88;23.40;;;;;;;;;;2078853;28;20033;-74
2023/09/17 06:39:34;;;;;;;43.17;24.48;;;;;;;;;;2092284;28;20345;-74
2023/09/17 06:40:55;;;;;;;41.75;24.52;;;;;;;;;;2091189;28;20048;-74
2023/09/17 06:42:16;;;;;;;42.65;24.27;;;;;;;;;;2095359;28;20392;-74
2023/09/17 06:43:38;;;;;;;45.08;25.35;;;;;;;;;;2095058;28;20028;-75
2023/09/17 06:44:59;;;;;;;42.63;24.80;;;;;;;;;;2092526;28;20033;-75
2023/09/17 06:46:22;;;;;;;42.22;23.13;;;;;;;;;;2098370;28;20036;-75
2023/09/17 06:47:43;;;;;;;38.80;23.48;;;;;;;;;;2089033;28;20025;-75
2023/09/17 06:49:03;;;;;;;42.13;24.55;;;;;;;;;;2090539;28;20040;-74
2023/09/17 06:50:24;;;;;;;38.03;23.13;;;;;;;;;;2093674;28;20071;-75
2023/09/17 06:51:45;;;;;;;42.75;23.98;;;;;;;;;;2092162;28;20044;-74
2023/09/17 06:53:06;;;;;;;40.92;24.50;;;;;;;;;;2086414;28;20037;-74
2023/09/17 06:54:27;;;;;;;40.03;23.80;;;;;;;;;;2093035;28;20028;-71
2023/09/17 06:55:48;;;;;;;42.97;25.85;;;;;;;;;;2096664;28;20044;-70
2023/09/17 06:57:09;;;;;;;39.80;23.17;;;;;;;;;;2084027;28;20033;-72
2023/09/17 06:58:30;;;;;;;47.65;26.17;;;;;;;;;;2092155;28;20074;-70
2023/09/17 06:59:52;;;;;;;39.70;24.35;;;;;;;;;;2088085;28;20083;-70
2023/09/17 07:01:13;;;;;;;39.15;23.85;;;;;;;;;;2091285;28;20504;-70
2023/09/17 07:02:33;;;;;;;40.85;23.58;;;;;;;;;;2097322;28;20037;-70
2023/09/17 07:03:54;;;;;;;39.63;22.58;;;;;;;;;;2105250;28;20078;-69
2023/09/17 07:05:16;;;;;;;42.33;23.92;;;;;;;;;;2106405;28;20036;-69
2023/09/17 07:06:37;;;;;;;42.45;23.83;;;;;;;;;;2092994;28;20452;-69
2023/09/17 07:07:58;;;;;;;41.15;23.90;;;;;;;;;;2088779;28;20044;-68
2023/09/17 07:09:19;;;;;;;39.58;24.08;;;;;;;;;;2095319;28;20036;-72
2023/09/17 07:10:40;;;;;;;43.40;25.75;;;;;;;;;;2100348;28;20137;-72
2023/09/17 07:12:01;;;;;;;43.80;25.08;;;;;;;;;;2092468;28;20067;-75
2023/09/17 07:13:22;;;;;;;42.17;27.08;;;;;;;;;;2090222;28;20036;-73
2023/09/17 07:14:43;;;;;;;53.30;28.98;;;;;;;;;;2102163;28;20033;-73
2023/09/17 07:16:04;;;;;;;48.50;27.00;;;;;;;;;;2088929;28;20079;-73
2023/09/17 07:17:25;;;;;;;50.60;28.02;;;;;;;;;;2096964;28;20032;-73
2023/09/17 07:18:46;;;;;;;52.50;28.85;;;;;;;;;;2100661;28;20036;-73
2023/09/17 07:20:07;;;;;;;52.65;32.17;;;;;;;;;;2105781;28;20549;-73
2023/09/17 07:21:28;;;;;;;48.92;29.17;;;;;;;;;;2090471;28;20444;-73
2023/09/17 07:22:49;;;;;;;52.20;27.90;;;;;;;;;;2094682;28;20025;-73
2023/09/17 07:24:10;;;;;;;71.13;43.38;;;;;;;;;;2100285;28;20025;-74
2023/09/17 07:25:31;;;;;;;78.95;52.65;;;;;;;;;;2087785;28;20033;-73
2023/09/17 07:26:52;;;;;;;84.05;53.05;;;;;;;;;;2099696;28;20036;-74
2023/09/17 07:28:13;;;;;;;224.68;152.85;;;;;;;;;;2106843;28;20378;-74
2023/09/17 07:29:34;;;;;;;217.88;122.88;;;;;;;;;;2090246;28;20032;-74
2023/09/17 07:30:56;;;;;;;193.68;125.32;;;;;;;;;;2090648;28;20620;-74
2023/09/17 07:32:16;;;;;;;302.00;165.57;;;;;;;;;;2092163;28;20032;-72
2023/09/17 07:33:39;;;;;;;163.10;93.53;;;;;;;;;;2084272;28;20033;-74
2023/09/17 07:35:03;;;;;;;176.90;88.68;;;;;;;;;;2091462;28;20029;-74
2023/09/17 07:36:24;;;;;;;113.88;56.95;;;;;;;;;;2095131;28;20037;-73
2023/09/17 07:37:45;;;;;;;100.40;48.97;;;;;;;;;;2100443;28;20403;-74
2023/09/17 07:39:05;;;;;;;78.25;39.28;;;;;;;;;;2092730;28;20044;-73
2023/09/17 07:40:26;;;;;;;95.32;46.42;;;;;;;;;;2084765;28;20033;-74
2023/09/17 07:41:48;;;;;;;83.82;43.03;;;;;;;;;;2093032;28;20098;-74
2023/09/17 07:43:09;;;;;;;61.15;31.67;;;;;;;;;;2086065;28;20029;-74
2023/09/17 07:44:30;;;;;;;59.00;31.13;;;;;;;;;;2089256;28;20036;-75
2023/09/17 07:45:51;;;;;;;58.55;31.65;;;;;;;;;;2090745;28;20091;-74
2023/09/17 07:47:12;;;;;;;75.65;36.33;;;;;;;;;;2094455;28;20032;-75
2023/09/17 07:48:33;;;;;;;58.70;29.63;;;;;;;;;;2087084;28;20373;-75
2023/09/17 07:49:53;;;;;;;60.28;30.48;;;;;;;;;;2084398;28;20021;-75
2023/09/17 07:51:16;;;;;;;75.75;35.05;;;;;;;;;;2093863;28;20024;-75
2023/09/17 07:52:37;;;;;;;65.78;30.60;;;;;;;;;;2091232;28;20035;-75
2023/09/17 07:53:59;;;;;;;73.22;34.38;;;;;;;;;;2096635;28;20115;-75
2023/09/17 07:55:20;;;;;;;82.83;41.23;;;;;;;;;;2096812;28;20024;-75